Terminal Aerodrome Forecast
Issued by NWS

Home | Current Version | Previous Version | Text Only | Print | Product List | Glossary Off
Versions: 1 2 3 4 5 6 7 8 9 10 11 12 13 14 15 16

000
FTUS43 KMPX 240525
TAFAXN
TAF
KAXN 240525Z 2406/2506 18010KT P6SM SCT025 BKN250
     FM240700 20006KT P6SM OVC024
     FM240800 24006KT P6SM OVC020
      TEMPO 2409/2412 BKN009 OVC020
     FM241200 28006KT P6SM SCT020
     FM241700 28014G22KT P6SM SKC
     FM250000 28007KT P6SM FEW250=

USA.gov is the U.S. government's official web portal to all federal, state and local government web resources and services.